createdAt,value
2022-12-18T00:01:17.983Z,40.75
2022-12-18T00:03:46.959Z,29.30
2022-12-18T00:06:15.547Z,39.30
2022-12-18T00:08:45.996Z,33.45
2022-12-18T00:11:16.558Z,35.88
2022-12-18T00:13:44.574Z,48.28
2022-12-18T00:16:14.033Z,51.08
2022-12-18T00:18:42.523Z,42.42
2022-12-18T00:21:12.841Z,31.42
2022-12-18T00:23:42.113Z,41.40
2022-12-18T00:26:19.185Z,38.28
2022-12-18T00:28:47.464Z,35.60
2022-12-18T00:31:17.790Z,41.97
2022-12-18T00:33:46.048Z,35.33
2022-12-18T00:36:15.785Z,31.92
2022-12-18T00:38:43.716Z,37.10
2022-12-18T00:41:14.284Z,53.13
2022-12-18T00:43:41.344Z,37.88
2022-12-18T00:46:09.304Z,31.52
2022-12-18T00:48:37.333Z,39.33
2022-12-18T00:51:04.994Z,52.55
2022-12-18T00:53:32.653Z,50.97
2022-12-18T00:56:00.280Z,37.72
2022-12-18T00:58:29.259Z,39.75
2022-12-18T01:00:56.898Z,47.53
2022-12-18T01:03:24.602Z,38.65
2022-12-18T01:05:52.243Z,45.13
2022-12-18T01:08:19.850Z,47.92
2022-12-18T01:10:47.501Z,43.17
2022-12-18T01:13:15.196Z,44.65
2022-12-18T01:15:50.214Z,37.65
2022-12-18T01:18:17.892Z,44.92
2022-12-18T01:20:45.751Z,38.33
2022-12-18T01:23:13.416Z,43.83
2022-12-18T01:25:41.115Z,41.55
2022-12-18T01:28:08.763Z,35.30
2022-12-18T01:30:36.505Z,36.67
2022-12-18T01:33:06.419Z,45.40
2022-12-18T01:35:34.092Z,32.63
2022-12-18T01:38:01.746Z,38.20
2022-12-18T01:40:29.419Z,40.95
2022-12-18T01:42:57.008Z,47.25
2022-12-18T01:45:28.882Z,39.20
2022-12-18T01:47:58.399Z,31.83
2022-12-18T01:50:32.469Z,33.85
2022-12-18T01:53:04.169Z,31.75
2022-12-18T01:55:34.302Z,40.60
2022-12-18T01:58:03.051Z,28.55
2022-12-18T02:02:58.751Z,39.22
2022-12-18T02:05:38.983Z,33.85
2022-12-18T02:08:12.795Z,28.60
2022-12-18T02:10:48.689Z,34.03
2022-12-18T02:13:22.675Z,37.67
2022-12-18T02:15:59.272Z,35.38
2022-12-18T02:18:33.760Z,42.65
2022-12-18T02:21:12.286Z,42.70
2022-12-18T02:23:51.835Z,40.20
2022-12-18T02:26:25.037Z,35.13
2022-12-18T02:28:56.651Z,39.78
2022-12-18T02:31:27.387Z,38.80
2022-12-18T02:33:58.518Z,36.00
2022-12-18T02:36:28.533Z,36.10
2022-12-18T02:38:57.933Z,34.47
2022-12-18T02:41:27.721Z,33.03
2022-12-18T02:43:58.666Z,34.05
2022-12-18T02:46:32.562Z,36.28
2022-12-18T02:49:06.920Z,36.33
2022-12-18T02:51:42.428Z,43.10
2022-12-18T02:54:15.682Z,42.00
2022-12-18T02:56:52.432Z,33.45
2022-12-18T02:59:26.498Z,37.92
2022-12-18T03:01:59.016Z,36.65
2022-12-18T03:04:29.247Z,30.27
2022-12-18T03:06:59.613Z,26.75
2022-12-18T03:09:33.907Z,29.58
2022-12-18T03:12:24.723Z,38.72
2022-12-18T03:14:56.845Z,35.10
2022-12-18T03:17:27.524Z,34.30
2022-12-18T03:19:58.637Z,26.73
2022-12-18T03:22:30.852Z,33.28
2022-12-18T03:24:59.366Z,37.97
2022-12-18T03:27:31.338Z,33.20
2022-12-18T03:30:08.300Z,34.22
2022-12-18T03:32:41.844Z,33.15
2022-12-18T03:35:12.796Z,30.27
2022-12-18T03:37:40.745Z,39.05
2022-12-18T03:40:09.365Z,37.08
2022-12-18T03:42:48.971Z,41.78
2022-12-18T03:45:23.742Z,33.58
2022-12-18T03:48:00.356Z,28.50
2022-12-18T03:50:35.560Z,31.45
2022-12-18T03:53:14.752Z,29.30
2022-12-18T03:55:44.500Z,30.83
2022-12-18T03:58:19.375Z,32.42
2022-12-18T04:00:50.008Z,21.70
2022-12-18T04:03:26.051Z,30.52
2022-12-18T04:05:56.284Z,25.55
2022-12-18T04:08:25.280Z,31.98
2022-12-18T04:10:53.000Z,26.50
2022-12-18T04:13:25.520Z,32.55
2022-12-18T04:15:53.360Z,28.23
2022-12-18T04:18:21.128Z,29.25
2022-12-18T04:20:48.807Z,32.85
2022-12-18T04:23:16.632Z,31.80
2022-12-18T04:25:44.304Z,29.63
2022-12-18T04:28:11.990Z,28.98
2022-12-18T04:30:41.099Z,27.83
2022-12-18T04:33:11.079Z,31.77
2022-12-18T04:35:38.763Z,29.52
2022-12-18T04:38:07.504Z,30.05
2022-12-18T04:40:35.147Z,31.20
2022-12-18T04:43:03.020Z,26.10
2022-12-18T04:45:31.571Z,32.65
2022-12-18T04:48:00.697Z,26.90
2022-12-18T04:50:29.135Z,18.92
2022-12-18T04:52:56.892Z,20.33
2022-12-18T04:55:27.647Z,24.52
2022-12-18T04:57:55.684Z,22.58
2022-12-18T05:00:24.008Z,24.88
2022-12-18T05:02:51.812Z,17.85
2022-12-18T05:05:20.984Z,19.85
2022-12-18T05:07:48.658Z,21.83
2022-12-18T05:10:16.377Z,16.60
2022-12-18T05:12:57.991Z,28.73
2022-12-18T05:15:26.155Z,19.75
2022-12-18T05:17:53.820Z,24.63
2022-12-18T05:20:22.830Z,20.92
2022-12-18T05:22:50.602Z,19.13
2022-12-18T05:25:18.429Z,19.38
2022-12-18T05:27:46.992Z,17.55
2022-12-18T05:30:15.486Z,20.10
2022-12-18T05:32:43.769Z,19.65
2022-12-18T05:35:12.881Z,25.52
2022-12-18T05:37:43.514Z,18.90
2022-12-18T05:40:13.154Z,16.42
2022-12-18T05:42:40.926Z,21.58
2022-12-18T05:45:09.342Z,27.75
2022-12-18T05:47:37.053Z,17.73
2022-12-18T05:50:05.192Z,21.85
2022-12-18T05:52:32.867Z,23.05
2022-12-18T05:55:01.864Z,23.02
2022-12-18T05:57:29.509Z,16.20
2022-12-18T05:59:57.128Z,18.00
2022-12-18T06:02:24.910Z,25.55
2022-12-18T06:04:52.669Z,25.90
2022-12-18T06:07:20.315Z,16.77
2022-12-18T06:09:47.952Z,15.75
2022-12-18T06:12:16.913Z,20.70
2022-12-18T06:14:44.562Z,15.23
2022-12-18T06:17:12.293Z,19.20
2022-12-18T06:19:40.064Z,18.45
2022-12-18T06:22:07.721Z,17.30
2022-12-18T06:24:35.360Z,20.35
2022-12-18T06:27:03.287Z,21.52
2022-12-18T06:29:32.296Z,22.58
2022-12-18T06:31:59.954Z,19.42
2022-12-18T06:34:27.859Z,22.10
2022-12-18T06:36:55.472Z,16.38
2022-12-18T06:39:23.151Z,21.35
2022-12-18T06:41:50.836Z,20.15
2022-12-18T06:44:18.503Z,22.70
2022-12-18T06:46:47.780Z,19.92
2022-12-18T06:49:16.878Z,17.33
2022-12-18T06:51:44.560Z,16.27
2022-12-18T06:54:12.300Z,22.10
2022-12-18T06:56:39.893Z,12.98
2022-12-18T06:59:07.602Z,14.43
2022-12-18T07:01:35.406Z,15.80
2022-12-18T07:04:04.536Z,20.38
2022-12-18T07:06:32.244Z,13.82
2022-12-18T07:08:59.947Z,12.45
2022-12-18T07:11:27.669Z,16.77
2022-12-18T07:13:55.488Z,18.90
2022-12-18T07:16:26.250Z,16.05
2022-12-18T07:18:54.171Z,18.35
2022-12-18T07:21:24.084Z,18.20
2022-12-18T07:23:51.966Z,17.38
2022-12-18T07:26:22.219Z,21.05
2022-12-18T07:28:50.291Z,21.58
2022-12-18T07:31:20.270Z,25.42
2022-12-18T07:33:49.681Z,20.15
2022-12-18T07:36:17.451Z,20.02
2022-12-18T07:38:49.084Z,23.48
2022-12-18T07:41:16.881Z,18.95
2022-12-18T07:43:44.920Z,15.70
2022-12-18T07:46:14.656Z,15.23
2022-12-18T07:48:42.825Z,18.38
2022-12-18T07:51:12.460Z,16.52
2022-12-18T07:53:40.652Z,19.20
2022-12-18T07:56:29.085Z,17.42
2022-12-18T07:58:58.228Z,22.80
2022-12-18T08:01:26.360Z,15.38
2022-12-18T08:03:54.187Z,26.08
2022-12-18T08:06:23.803Z,20.20
2022-12-18T08:08:53.283Z,15.50
2022-12-18T08:11:22.738Z,19.42
2022-12-18T08:13:50.517Z,19.75
2022-12-18T08:16:18.734Z,19.15
2022-12-18T08:18:47.447Z,19.02
2022-12-18T08:21:17.142Z,17.83
2022-12-18T08:23:45.945Z,17.23
2022-12-18T08:26:14.248Z,21.48
2022-12-18T08:28:44.129Z,21.30
2022-12-18T08:31:12.384Z,18.15
2022-12-18T08:33:41.475Z,17.25
2022-12-18T08:36:11.491Z,17.50
2022-12-18T08:38:39.205Z,13.95
2022-12-18T08:41:09.656Z,14.90
2022-12-18T08:43:55.083Z,17.92
2022-12-18T08:46:25.944Z,24.23
2022-12-18T08:48:55.397Z,13.52
2022-12-18T08:51:23.217Z,20.20
2022-12-18T08:53:50.859Z,14.75
2022-12-18T08:56:18.679Z,26.33
2022-12-18T08:58:46.361Z,15.32
2022-12-18T09:01:15.176Z,16.27
2022-12-18T09:03:44.705Z,22.10
2022-12-18T09:06:16.641Z,20.40
2022-12-18T09:08:44.741Z,17.13
2022-12-18T09:11:16.800Z,16.80
2022-12-18T09:13:44.503Z,16.35
2022-12-18T09:16:12.188Z,17.90
2022-12-18T09:18:40.167Z,21.95
2022-12-18T09:21:14.014Z,17.65
2022-12-18T09:23:42.300Z,18.90
2022-12-18T09:26:10.228Z,19.58
2022-12-18T09:28:38.328Z,19.73
2022-12-18T09:31:08.862Z,23.00
2022-12-18T09:33:37.044Z,21.92
2022-12-18T09:36:07.592Z,20.65
2022-12-18T09:38:37.606Z,19.73
2022-12-18T09:41:19.997Z,18.27
2022-12-18T09:43:52.206Z,23.45
2022-12-18T09:46:28.171Z,23.58
2022-12-18T09:49:01.619Z,19.42
2022-12-18T09:51:32.217Z,19.80
2022-12-18T09:54:04.473Z,17.63
2022-12-18T09:56:37.620Z,13.57
2022-12-18T09:59:06.589Z,18.60
2022-12-18T10:01:43.096Z,17.65
2022-12-18T10:04:12.482Z,15.98
2022-12-18T10:06:48.276Z,17.85
2022-12-18T10:09:29.285Z,17.88
2022-12-18T10:12:06.387Z,17.90
2022-12-18T10:14:52.181Z,14.07
2022-12-18T10:17:27.235Z,17.60
2022-12-18T10:19:59.965Z,19.88
2022-12-18T10:22:41.304Z,16.15
2022-12-18T10:25:19.658Z,13.52
2022-12-18T10:27:47.429Z,24.38
2022-12-18T10:30:22.976Z,18.30
2022-12-18T10:35:22.483Z,14.77
2022-12-18T10:38:08.972Z,17.08
2022-12-18T10:40:51.574Z,14.10
2022-12-18T10:43:23.971Z,20.02
2022-12-18T10:46:16.640Z,19.27
2022-12-18T10:48:54.791Z,18.30
2022-12-18T10:51:25.409Z,17.48
2022-12-18T10:53:57.833Z,15.13
2022-12-18T10:56:29.926Z,14.52
2022-12-18T10:59:00.507Z,20.33
2022-12-18T11:01:29.371Z,18.35
2022-12-18T11:04:10.504Z,17.42
2022-12-18T11:06:55.900Z,16.08
2022-12-18T11:09:25.157Z,16.05
2022-12-18T11:11:55.688Z,18.20
2022-12-18T11:14:25.325Z,15.73
2022-12-18T11:17:25.360Z,14.30
2022-12-18T11:19:45.342Z,17.17
2022-12-18T11:22:22.345Z,16.35
2022-12-18T11:25:30.365Z,14.07
2022-12-18T11:27:54.587Z,15.35
2022-12-18T11:30:27.680Z,14.40
2022-12-18T11:32:59.637Z,17.10
2022-12-18T11:35:40.043Z,17.58
2022-12-18T11:38:19.384Z,15.13
2022-12-18T11:40:53.736Z,18.75
2022-12-18T11:43:29.783Z,14.90
2022-12-18T11:46:08.265Z,16.10
2022-12-18T11:48:47.241Z,15.10
2022-12-18T11:51:27.053Z,17.90
2022-12-18T11:53:54.996Z,17.73
2022-12-18T11:56:33.909Z,17.60
2022-12-18T11:59:17.994Z,12.27
2022-12-18T12:01:52.937Z,20.58
2022-12-18T12:05:03.191Z,18.23
2022-12-18T12:07:44.729Z,14.63
2022-12-18T12:10:25.292Z,18.40
2022-12-18T12:13:11.655Z,19.48
2022-12-18T12:15:52.406Z,13.57
2022-12-18T12:18:31.118Z,14.35
2022-12-18T12:21:09.322Z,19.35
2022-12-18T12:23:43.754Z,18.38
2022-12-18T12:26:17.364Z,14.48
2022-12-18T12:29:09.162Z,17.00
2022-12-18T12:32:02.851Z,16.30
2022-12-18T12:34:39.013Z,15.98
2022-12-18T12:37:19.534Z,15.25
2022-12-18T12:39:49.209Z,14.00
2022-12-18T12:42:39.475Z,16.15
2022-12-18T12:45:16.280Z,17.30
2022-12-18T12:47:47.884Z,17.13
2022-12-18T12:50:19.565Z,16.17
2022-12-18T12:52:49.559Z,17.10
2022-12-18T12:55:21.384Z,15.95
2022-12-18T12:57:59.863Z,20.00
2022-12-18T13:00:33.313Z,20.60
2022-12-18T13:03:10.437Z,22.13
2022-12-18T13:05:46.104Z,19.05
2022-12-18T13:08:26.376Z,19.80
2022-12-18T13:11:16.991Z,18.00
2022-12-18T13:13:51.438Z,18.73
2022-12-18T13:16:21.992Z,18.58
2022-12-18T13:18:53.388Z,22.60
2022-12-18T13:21:25.623Z,19.55
2022-12-18T13:23:53.528Z,18.65
2022-12-18T13:26:35.510Z,15.07
2022-12-18T13:29:07.094Z,19.70
2022-12-18T13:32:15.831Z,16.88
2022-12-18T13:34:48.751Z,15.50
2022-12-18T13:37:52.937Z,13.75
2022-12-18T13:40:56.347Z,17.27
2022-12-18T13:43:40.411Z,17.90
2022-12-18T13:46:23.697Z,15.15
2022-12-18T13:48:55.784Z,19.90
2022-12-18T13:51:26.895Z,18.50
2022-12-18T13:53:59.475Z,18.20
2022-12-18T13:56:29.541Z,15.63
2022-12-18T13:59:15.475Z,17.52
2022-12-18T14:01:49.274Z,15.02
2022-12-18T14:04:30.498Z,14.57
2022-12-18T14:07:03.757Z,17.17
2022-12-18T14:09:33.948Z,22.35
2022-12-18T14:12:19.711Z,16.33
2022-12-18T14:14:49.836Z,17.65
2022-12-18T14:17:21.342Z,19.80
2022-12-18T14:19:52.061Z,15.57
2022-12-18T14:22:23.008Z,18.02
2022-12-18T14:25:10.641Z,16.98
2022-12-18T14:27:40.064Z,15.70
2022-12-18T14:30:26.760Z,16.45
2022-12-18T14:33:02.665Z,16.58
2022-12-18T14:35:30.670Z,18.60
2022-12-18T14:38:23.300Z,18.35
2022-12-18T14:40:55.565Z,18.38
2022-12-18T14:43:23.836Z,19.15
2022-12-18T14:45:52.604Z,18.10
2022-12-18T14:48:23.350Z,18.08
2022-12-18T14:51:00.632Z,14.32
2022-12-18T14:53:41.973Z,19.80
2022-12-18T14:56:19.584Z,20.25
2022-12-18T14:59:09.631Z,18.27
2022-12-18T15:01:39.827Z,17.70
2022-12-18T15:04:27.363Z,21.48
2022-12-18T15:07:06.516Z,17.98
2022-12-18T15:09:35.575Z,17.25
2022-12-18T15:12:03.796Z,19.02
2022-12-18T15:14:42.068Z,18.13
2022-12-18T15:17:19.959Z,18.95
2022-12-18T15:19:49.908Z,18.20
2022-12-18T15:22:28.218Z,21.15
2022-12-18T15:24:58.667Z,21.00
2022-12-18T15:27:30.299Z,16.90
2022-12-18T15:30:24.040Z,21.30
2022-12-18T15:32:52.783Z,23.48
2022-12-18T15:35:23.182Z,19.63
2022-12-18T15:37:51.839Z,20.83
2022-12-18T15:40:23.197Z,18.52
2022-12-18T15:43:10.740Z,19.13
2022-12-18T15:45:38.359Z,18.98
2022-12-18T15:48:17.694Z,16.50
2022-12-18T15:50:45.379Z,17.83
2022-12-18T15:53:13.060Z,18.52
2022-12-18T15:56:01.304Z,16.52
2022-12-18T15:58:29.501Z,16.63
2022-12-18T16:01:00.489Z,18.48
2022-12-18T16:03:28.517Z,17.65
2022-12-18T16:05:56.224Z,21.70
2022-12-18T16:08:24.639Z,23.20
2022-12-18T16:10:53.649Z,16.88
2022-12-18T16:13:22.209Z,18.38
2022-12-18T16:15:49.965Z,23.80
2022-12-18T16:18:17.632Z,21.85
2022-12-18T16:20:45.312Z,18.65
2022-12-18T16:23:12.968Z,20.02
2022-12-18T16:25:40.644Z,24.10
2022-12-18T16:28:09.630Z,21.70
2022-12-18T16:30:38.625Z,23.17
2022-12-18T16:33:07.708Z,23.98
2022-12-18T16:35:38.111Z,20.85
2022-12-18T16:38:05.864Z,21.00
2022-12-18T16:40:34.340Z,22.35
2022-12-18T16:43:02.004Z,18.17
2022-12-18T16:45:34.105Z,20.08
2022-12-18T16:48:01.912Z,21.77
2022-12-18T16:50:29.519Z,21.00
2022-12-18T16:52:57.127Z,12.48
2022-12-18T16:55:24.772Z,22.42
2022-12-18T16:57:52.596Z,23.33
2022-12-18T17:00:20.667Z,23.27
2022-12-18T17:02:49.809Z,21.20
2022-12-18T17:05:17.704Z,20.77
2022-12-18T17:07:45.364Z,22.30
2022-12-18T17:10:13.132Z,27.17
2022-12-18T17:12:40.795Z,20.85
2022-12-18T17:15:10.082Z,23.55
2022-12-18T17:17:37.749Z,16.98
2022-12-18T17:20:07.306Z,23.90
2022-12-18T17:22:34.949Z,23.48
2022-12-18T17:25:02.651Z,22.95
2022-12-18T17:27:30.260Z,22.20
2022-12-18T17:29:58.182Z,25.77
2022-12-18T17:32:25.881Z,24.27
2022-12-18T17:34:53.501Z,24.65
2022-12-18T17:37:22.487Z,22.42
2022-12-18T17:39:50.195Z,23.33
2022-12-18T17:42:17.846Z,26.38
2022-12-18T17:44:45.993Z,24.58
2022-12-18T17:47:14.158Z,23.63
2022-12-18T17:49:41.895Z,17.65
2022-12-18T17:52:09.675Z,20.40
2022-12-18T17:54:41.327Z,21.33
2022-12-18T17:57:09.072Z,13.18
2022-12-18T17:59:36.789Z,18.77
2022-12-18T18:02:04.512Z,15.77
2022-12-18T18:04:32.469Z,22.30
2022-12-18T18:07:00.164Z,21.83
2022-12-18T18:09:27.947Z,30.25
2022-12-18T18:12:14.527Z,21.02
2022-12-18T18:14:42.200Z,20.13
2022-12-18T18:17:09.892Z,18.40
2022-12-18T18:19:37.592Z,24.08
2022-12-18T18:22:07.045Z,20.75
2022-12-18T18:24:34.820Z,24.98
2022-12-18T18:27:03.908Z,17.23
2022-12-18T18:29:31.571Z,23.63
2022-12-18T18:31:59.544Z,22.90
2022-12-18T18:34:29.639Z,30.90
2022-12-18T18:36:57.312Z,22.10
2022-12-18T18:39:25.325Z,20.35
2022-12-18T18:41:53.097Z,32.63
2022-12-18T18:44:25.739Z,25.40
2022-12-18T18:46:55.095Z,28.08
2022-12-18T18:49:24.121Z,24.20
2022-12-18T18:51:52.052Z,17.73
2022-12-18T18:54:19.644Z,25.88
2022-12-18T18:59:36.552Z,16.70
2022-12-18T19:02:05.065Z,22.00
2022-12-18T19:04:33.531Z,23.70
2022-12-18T19:07:01.291Z,25.63
2022-12-18T19:09:29.410Z,30.77
2022-12-18T19:12:14.780Z,26.27
2022-12-18T19:14:43.847Z,23.35
2022-12-18T19:17:11.611Z,22.33
2022-12-18T19:19:39.971Z,20.38
2022-12-18T19:22:09.327Z,26.70
2022-12-18T19:24:37.100Z,17.27
2022-12-18T19:27:04.945Z,20.60
2022-12-18T19:29:33.056Z,20.80
2022-12-18T19:32:02.539Z,22.83
2022-12-18T19:34:30.289Z,22.55
2022-12-18T19:36:59.755Z,17.65
2022-12-18T19:39:28.044Z,20.70
2022-12-18T19:41:55.853Z,25.70
2022-12-18T19:44:23.541Z,26.92
2022-12-18T19:46:51.782Z,23.75
2022-12-18T19:49:20.813Z,27.58
2022-12-18T19:51:50.185Z,25.75
2022-12-18T19:54:18.250Z,16.77
2022-12-18T19:56:46.732Z,24.75
2022-12-18T19:59:14.991Z,25.98
2022-12-18T20:01:43.203Z,22.23
2022-12-18T20:04:11.136Z,23.85
2022-12-18T20:06:49.341Z,24.35
2022-12-18T20:09:17.454Z,20.77
2022-12-18T20:11:45.515Z,20.63
2022-12-18T20:14:16.869Z,20.80
2022-12-18T20:16:51.545Z,28.65
2022-12-18T20:21:48.663Z,25.45
2022-12-18T20:24:16.320Z,27.33
2022-12-18T20:26:44.008Z,14.77
2022-12-18T20:29:11.696Z,24.15
2022-12-18T20:31:39.367Z,26.52
2022-12-18T20:34:07.223Z,14.45
2022-12-18T20:36:37.535Z,27.42
2022-12-18T20:39:08.922Z,30.80
2022-12-18T20:41:39.135Z,31.52
2022-12-18T20:44:17.742Z,27.75
2022-12-18T20:46:51.460Z,35.10
2022-12-18T20:49:19.128Z,24.02
2022-12-18T20:51:46.767Z,24.38
2022-12-18T20:54:15.784Z,28.35
2022-12-18T20:56:43.409Z,20.65
2022-12-18T20:59:11.323Z,30.65
2022-12-18T21:01:47.564Z,28.58
2022-12-18T21:04:18.703Z,18.35
2022-12-18T21:06:51.443Z,24.90
2022-12-18T21:09:22.271Z,24.80
2022-12-18T21:12:07.365Z,25.23
2022-12-18T21:14:35.293Z,22.48
2022-12-18T21:17:03.028Z,25.05
2022-12-18T21:19:30.783Z,29.45
2022-12-18T21:21:59.183Z,27.77
2022-12-18T21:24:28.227Z,29.60
2022-12-18T21:27:00.467Z,31.88
2022-12-18T21:29:28.100Z,33.70
2022-12-18T21:31:55.941Z,23.60
2022-12-18T21:34:26.755Z,32.45
2022-12-18T21:36:55.730Z,38.47
2022-12-18T21:39:23.567Z,24.70
2022-12-18T21:42:10.872Z,27.23
2022-12-18T21:44:42.011Z,26.35
2022-12-18T21:47:21.742Z,25.45
2022-12-18T21:49:51.094Z,29.52
2022-12-18T21:52:18.788Z,30.42
2022-12-18T21:54:46.457Z,23.13
2022-12-18T21:57:15.536Z,27.70
2022-12-18T21:59:44.278Z,39.33
2022-12-18T22:02:13.845Z,25.20
2022-12-18T22:04:41.989Z,28.45
2022-12-18T22:07:09.862Z,30.23
2022-12-18T22:09:38.951Z,36.90
2022-12-18T22:12:08.968Z,26.27
2022-12-18T22:14:38.319Z,37.53
2022-12-18T22:17:06.016Z,34.05
2022-12-18T22:19:41.089Z,28.50
2022-12-18T22:22:10.464Z,43.17
2022-12-18T22:24:38.101Z,12.25
2022-12-18T22:27:05.789Z,16.02
2022-12-18T22:29:52.825Z,39.55
2022-12-18T22:32:30.713Z,30.52
2022-12-18T22:35:05.248Z,33.22
2022-12-18T22:37:34.779Z,39.83
2022-12-18T22:40:03.058Z,32.38
2022-12-18T22:42:31.137Z,53.72
2022-12-18T22:45:00.332Z,28.92
2022-12-18T22:47:30.588Z,35.58
2022-12-18T22:49:58.691Z,33.17
2022-12-18T22:52:26.377Z,34.92
2022-12-18T22:54:54.439Z,28.85
2022-12-18T22:57:22.612Z,22.50
2022-12-18T22:59:50.555Z,39.20
2022-12-18T23:02:18.883Z,30.88
2022-12-18T23:04:48.570Z,29.60
2022-12-18T23:07:16.593Z,22.08
2022-12-18T23:09:44.836Z,18.23
2022-12-18T23:12:17.095Z,38.70
2022-12-18T23:14:45.282Z,30.80
2022-12-18T23:17:12.928Z,29.15
2022-12-18T23:19:45.509Z,19.85
2022-12-18T23:22:17.757Z,35.50
2022-12-18T23:24:45.435Z,20.20
2022-12-18T23:27:13.110Z,29.98
2022-12-18T23:29:40.778Z,34.08
2022-12-18T23:32:08.973Z,30.30
2022-12-18T23:34:36.570Z,18.25
2022-12-18T23:37:04.593Z,31.00
2022-12-18T23:39:33.614Z,20.40
2022-12-18T23:42:01.744Z,27.77
2022-12-18T23:44:29.541Z,38.83
2022-12-18T23:46:57.191Z,26.27
2022-12-18T23:49:24.944Z,26.77
2022-12-18T23:51:54.845Z,22.75
2022-12-18T23:54:27.275Z,11.07
2022-12-18T23:57:02.639Z,23.67
2022-12-18T23:59:30.291Z,31.60
